createdAt,value
2022-08-21T00:04:57.368Z,60778.69
2022-08-21T00:11:28.119Z,60778.69
2022-08-21T00:18:14.724Z,60778.69
2022-08-21T00:24:38.858Z,60778.69
2022-08-21T00:31:12.635Z,60778.69
2022-08-21T00:37:54.707Z,60778.69
2022-08-21T00:44:28.389Z,60778.69
2022-08-21T00:51:15.118Z,60778.69
2022-08-21T00:57:39.369Z,60778.69
2022-08-21T01:04:15.923Z,60778.69
2022-08-21T01:10:58.103Z,60778.69
2022-08-21T01:17:26.679Z,60778.69
2022-08-21T01:24:13.380Z,60778.69
2022-08-21T01:30:40.502Z,60778.69
2022-08-21T01:37:13.570Z,60778.69
2022-08-21T01:43:55.624Z,60778.69
2022-08-21T01:50:24.163Z,60778.69
2022-08-21T01:57:13.441Z,60778.69
2022-08-21T02:03:37.466Z,60778.69
2022-08-21T02:10:11.087Z,60778.69
2022-08-21T02:16:53.212Z,60778.69
2022-08-21T02:23:34.168Z,60778.69
2022-08-21T02:30:20.729Z,60778.69
2022-08-21T02:36:22.521Z,60778.69
2022-08-21T02:38:50.367Z,60778.69
2022-08-21T02:41:21.473Z,60778.69
2022-08-21T02:43:48.603Z,60778.69
2022-08-21T02:46:19.372Z,60778.69
2022-08-21T02:48:47.215Z,60778.69
2022-08-21T02:51:20.659Z,60778.69
2022-08-21T02:53:48.996Z,60778.69
2022-08-21T02:56:21.276Z,60778.69
2022-08-21T02:58:53.103Z,60778.69
2022-08-21T03:01:21.115Z,60778.69
2022-08-21T03:03:52.375Z,60778.69
2022-08-21T03:06:21.924Z,60778.69
2022-08-21T03:08:49.040Z,60778.69
2022-08-21T03:11:16.145Z,60778.69
2022-08-21T03:13:43.590Z,60778.69
2022-08-21T03:16:10.650Z,60778.69
2022-08-21T03:18:38.364Z,60778.69
2022-08-21T03:21:07.525Z,60778.69
2022-08-21T03:23:34.306Z,60778.69
2022-08-21T03:26:01.608Z,60778.69
2022-08-21T03:28:29.210Z,60778.69
2022-08-21T03:30:56.291Z,60778.69
2022-08-21T03:33:23.905Z,60778.69
2022-08-21T03:36:04.532Z,60778.69
2022-08-21T03:38:32.926Z,60778.69
2022-08-21T03:41:01.000Z,60778.69
2022-08-21T03:43:30.970Z,60778.69
2022-08-21T03:45:58.188Z,60778.69
2022-08-21T03:48:24.826Z,60778.69
2022-08-21T03:50:53.914Z,60778.69
2022-08-21T03:53:20.992Z,60778.69
2022-08-21T03:55:51.415Z,60778.69
2022-08-21T03:58:23.379Z,60778.69
2022-08-21T04:00:52.783Z,60778.69
2022-08-21T04:03:20.796Z,60778.69
2022-08-21T04:05:47.965Z,60778.69
2022-08-21T04:08:18.242Z,60778.69
2022-08-21T04:10:48.545Z,60778.69
2022-08-21T04:13:16.055Z,60778.69
2022-08-21T04:15:43.599Z,60778.69
2022-08-21T04:18:10.826Z,60778.69
2022-08-21T04:20:38.058Z,60778.69
2022-08-21T04:23:04.776Z,60778.69
2022-08-21T04:25:31.966Z,60778.69
2022-08-21T04:27:59.356Z,60778.69
2022-08-21T04:30:27.576Z,60778.69
2022-08-21T04:32:58.711Z,60778.69
2022-08-21T04:35:28.124Z,60778.69
2022-08-21T04:37:55.307Z,60778.69
2022-08-21T04:40:25.668Z,60778.69
2022-08-21T04:43:03.730Z,60778.69
2022-08-21T04:45:37.859Z,60778.69
2022-08-21T04:48:13.315Z,60778.69
2022-08-21T04:51:02.210Z,60778.69
2022-08-21T04:53:51.515Z,60778.69
2022-08-21T04:56:33.839Z,60778.69
2022-08-21T04:59:05.231Z,60778.69
2022-08-21T05:01:36.706Z,60778.69
2022-08-21T05:04:06.790Z,60778.69
2022-08-21T05:06:38.002Z,60778.69
2022-08-21T05:09:06.868Z,60778.69
2022-08-21T05:11:34.097Z,60778.69
2022-08-21T05:14:00.805Z,60778.69
2022-08-21T05:16:30.162Z,60778.69
2022-08-21T05:19:06.103Z,60778.69
2022-08-21T05:21:37.375Z,60778.69
2022-08-21T05:24:04.331Z,60778.69
2022-08-21T05:26:31.653Z,60778.69
2022-08-21T05:28:58.931Z,60778.69
2022-08-21T05:31:25.959Z,60778.69
2022-08-21T05:33:52.750Z,60778.69
2022-08-21T05:36:23.315Z,60778.69
2022-08-21T05:38:49.995Z,60778.69
2022-08-21T05:41:16.667Z,60778.69
2022-08-21T05:43:43.432Z,60778.69
2022-08-21T05:46:10.455Z,60778.69
2022-08-21T05:48:37.518Z,60778.69
2022-08-21T05:51:11.417Z,60778.69
2022-08-21T05:53:39.187Z,60778.69
2022-08-21T05:56:06.191Z,60778.69
2022-08-21T05:58:34.251Z,60778.69
2022-08-21T06:01:03.355Z,60778.69
2022-08-21T06:03:34.960Z,60778.69
2022-08-21T06:06:02.537Z,60778.69
2022-08-21T06:08:29.741Z,60778.69
2022-08-21T06:11:01.226Z,60778.69
2022-08-21T06:13:29.489Z,60778.69
2022-08-21T06:16:15.658Z,60778.69
2022-08-21T06:18:44.547Z,60778.69
2022-08-21T06:21:12.592Z,60778.69
2022-08-21T06:23:39.262Z,60778.69
2022-08-21T06:26:08.142Z,60778.69
2022-08-21T06:28:36.529Z,60778.69
2022-08-21T06:31:15.912Z,60778.69
2022-08-21T06:33:42.539Z,60778.69
2022-08-21T06:36:10.115Z,60778.69
2022-08-21T06:38:38.442Z,60778.69
2022-08-21T06:41:07.399Z,60778.69
2022-08-21T06:43:39.924Z,60778.69
2022-08-21T06:46:08.628Z,60778.69
2022-08-21T06:48:35.413Z,60778.69
2022-08-21T06:51:02.659Z,60778.69
2022-08-21T06:53:29.438Z,60778.69
2022-08-21T06:55:56.129Z,60778.69
2022-08-21T06:58:22.841Z,60778.69
2022-08-21T07:00:52.477Z,60778.69
2022-08-21T07:03:22.798Z,60778.69
2022-08-21T07:05:50.081Z,60778.69
2022-08-21T07:08:17.771Z,60778.69
2022-08-21T07:10:44.963Z,60778.69
2022-08-21T07:13:11.725Z,60778.69
2022-08-21T07:15:38.368Z,60778.69
2022-08-21T07:18:05.031Z,60778.69
2022-08-21T07:20:34.651Z,60778.69
2022-08-21T07:23:06.342Z,60778.69
2022-08-21T07:25:32.972Z,60778.69
2022-08-21T07:27:59.977Z,60778.69
2022-08-21T07:30:27.283Z,60778.69
2022-08-21T07:32:54.426Z,60778.69
2022-08-21T07:35:22.272Z,60778.69
2022-08-21T07:37:49.320Z,60778.69
2022-08-21T07:40:18.032Z,60778.69
2022-08-21T07:42:50.946Z,60778.69
2022-08-21T07:45:19.513Z,60778.69
2022-08-21T07:47:46.301Z,60778.69
2022-08-21T07:50:14.803Z,60778.69
2022-08-21T07:52:42.918Z,60778.69
2022-08-21T07:55:18.071Z,60778.69
2022-08-21T07:57:45.490Z,60778.69
2022-08-21T08:00:20.779Z,60778.69
2022-08-21T08:02:51.306Z,60778.69
2022-08-21T08:05:20.961Z,60778.69
2022-08-21T08:07:48.645Z,60778.69
2022-08-21T08:10:16.769Z,60778.69
2022-08-21T08:12:44.727Z,60778.69
2022-08-21T08:15:19.274Z,60778.69
2022-08-21T08:17:46.018Z,60778.69
2022-08-21T08:20:14.651Z,60778.69
2022-08-21T08:22:42.288Z,60778.69
2022-08-21T08:25:11.179Z,60778.69
2022-08-21T08:27:39.050Z,60778.69
2022-08-21T08:30:09.074Z,60778.69
2022-08-21T08:32:37.607Z,60778.69
2022-08-21T08:35:06.288Z,60778.69
2022-08-21T08:37:34.815Z,60778.69
2022-08-21T08:40:03.442Z,60778.69
2022-08-21T08:42:36.805Z,60778.69
2022-08-21T08:45:12.670Z,60778.69
2022-08-21T08:47:45.573Z,60778.69
2022-08-21T08:50:14.872Z,60778.69
2022-08-21T08:52:52.908Z,60778.69
2022-08-21T08:55:34.456Z,60778.69
2022-08-21T08:58:03.565Z,60778.69
2022-08-21T09:00:32.501Z,60778.69
2022-08-21T09:03:03.317Z,60778.69
2022-08-21T09:06:04.057Z,60778.69
2022-08-21T09:09:09.970Z,60778.69
2022-08-21T09:12:03.981Z,60778.69
2022-08-21T09:15:12.222Z,60778.69
2022-08-21T09:18:07.274Z,60778.69
2022-08-21T09:21:03.490Z,60778.69
2022-08-21T09:24:02.428Z,60778.69
2022-08-21T09:27:19.554Z,60778.69
2022-08-21T09:29:51.786Z,60778.69
2022-08-21T09:32:32.460Z,60778.69
2022-08-21T09:35:22.058Z,60778.69
2022-08-21T09:38:07.445Z,60778.69
2022-08-21T09:40:44.099Z,60778.69
2022-08-21T09:43:13.434Z,60778.69
2022-08-21T09:45:43.663Z,60778.69
2022-08-21T09:48:26.362Z,60778.69
2022-08-21T09:50:54.814Z,60778.69
2022-08-21T09:53:31.476Z,60778.69
2022-08-21T09:56:24.370Z,60778.69
2022-08-21T09:58:52.624Z,60778.69
2022-08-21T10:01:23.438Z,60778.69
2022-08-21T10:04:03.185Z,60778.69
2022-08-21T10:06:30.382Z,60778.69
2022-08-21T10:09:17.953Z,60778.69
2022-08-21T10:12:24.189Z,60778.69
2022-08-21T10:15:23.791Z,60778.69
2022-08-21T10:18:27.126Z,60778.69
2022-08-21T10:21:20.407Z,60778.69
2022-08-21T10:24:11.758Z,60778.69
2022-08-21T10:27:12.292Z,60778.69
2022-08-21T10:30:14.537Z,60778.69
2022-08-21T10:32:55.065Z,60778.69
2022-08-21T10:36:21.095Z,60778.69
2022-08-21T10:39:26.855Z,60778.69
2022-08-21T10:42:18.401Z,60778.69
2022-08-21T10:45:22.456Z,60778.69
2022-08-21T10:47:58.371Z,60778.69
2022-08-21T10:50:54.622Z,60778.69
2022-08-21T10:53:36.186Z,60778.69
2022-08-21T10:56:15.977Z,60778.69
2022-08-21T10:59:02.511Z,60778.69
2022-08-21T11:02:13.412Z,60778.69
2022-08-21T11:05:17.180Z,60778.69
2022-08-21T11:07:58.930Z,60778.69
2022-08-21T11:10:59.174Z,60778.69
2022-08-21T11:13:57.245Z,60778.69
2022-08-21T11:16:32.178Z,60778.69
2022-08-21T11:19:22.077Z,60778.69
2022-08-21T11:25:36.616Z,101228.16
2022-08-21T11:28:14.799Z,101225.69
2022-08-21T11:31:21.796Z,101233.81
2022-08-21T11:33:56.605Z,101235.22
2022-08-21T11:36:56.606Z,101239.22
2022-08-21T11:39:46.027Z,101227.69
2022-08-21T11:42:36.963Z,101229.25
2022-08-21T11:45:40.401Z,101225.47
2022-08-21T11:48:50.821Z,101216.72
2022-08-21T11:51:34.528Z,101213.13
2022-08-21T11:54:22.947Z,101223.19
2022-08-21T11:57:03.521Z,101211.97
2022-08-21T11:59:46.185Z,101221.31
2022-08-21T12:02:18.982Z,101217.31
2022-08-21T12:04:53.524Z,101206.66
2022-08-21T12:07:45.582Z,101207.50
2022-08-21T12:10:22.050Z,101205.84
2022-08-21T12:12:49.352Z,101179.84
2022-08-21T12:15:22.041Z,101191.91
2022-08-21T12:18:30.065Z,101211.22
2022-08-21T12:21:27.643Z,101215.75
2022-08-21T12:24:15.881Z,101192.06
2022-08-21T12:27:26.526Z,101194.50
2022-08-21T12:30:08.729Z,101203.41
2022-08-21T12:32:57.783Z,101202.38
2022-08-21T12:35:44.575Z,101198.34
2022-08-21T12:38:19.039Z,101184.03
2022-08-21T12:41:16.124Z,101193.41
2022-08-21T12:43:53.630Z,101192.69
2022-08-21T12:46:37.587Z,101191.81
2022-08-21T12:49:33.200Z,101185.75
2022-08-21T12:52:22.274Z,101194.50
2022-08-21T12:54:49.196Z,101185.31
2022-08-21T12:57:29.635Z,101189.47
2022-08-21T13:00:00.601Z,101172.28
2022-08-21T13:02:43.831Z,101184.09
2022-08-21T13:05:20.928Z,101189.69
2022-08-21T13:07:49.373Z,101186.47
2022-08-21T13:10:30.773Z,101185.88
2022-08-21T13:13:12.673Z,101168.41
2022-08-21T13:15:47.382Z,101179.69
2022-08-21T13:18:24.394Z,101172.47
2022-08-21T13:20:52.238Z,101169.06
2022-08-21T13:23:22.156Z,101173.16
2022-08-21T13:25:48.814Z,101176.00
2022-08-21T13:28:16.281Z,101164.59
2022-08-21T13:30:55.482Z,101168.09
2022-08-21T13:33:36.425Z,101156.47
2022-08-21T13:36:18.616Z,101163.13
2022-08-21T13:38:46.527Z,101159.47
2022-08-21T13:41:31.909Z,101153.25
2022-08-21T13:44:43.890Z,101167.44
2022-08-21T13:47:14.464Z,101164.19
2022-08-21T13:49:46.324Z,101168.44
2022-08-21T13:52:31.059Z,101167.81
2022-08-21T13:55:02.243Z,101147.53
2022-08-21T13:57:35.151Z,101152.97
2022-08-21T14:00:18.999Z,101154.28
2022-08-21T14:02:50.855Z,101151.72
2022-08-21T14:05:30.318Z,101154.06
2022-08-21T14:08:14.843Z,101152.91
2022-08-21T14:10:54.806Z,101142.22
2022-08-21T14:13:38.959Z,101158.97
2022-08-21T14:16:26.416Z,101146.44
2022-08-21T14:19:20.496Z,101150.25
2022-08-21T14:21:48.003Z,101141.34
2022-08-21T14:24:24.310Z,101145.69
2022-08-21T14:26:55.991Z,101152.19
2022-08-21T14:29:28.424Z,101150.38
2022-08-21T14:32:16.558Z,101157.84
2022-08-21T14:34:55.146Z,101146.09
2022-08-21T14:37:25.051Z,101140.09
2022-08-21T14:39:51.736Z,101136.34
2022-08-21T14:42:18.971Z,101134.84
2022-08-21T14:44:45.990Z,101137.06
2022-08-21T14:47:13.114Z,101132.53
2022-08-21T14:49:40.730Z,101136.06
2022-08-21T14:52:07.473Z,101135.28
2022-08-21T14:54:34.231Z,101117.44
2022-08-21T14:57:11.811Z,101124.38
2022-08-21T14:59:39.640Z,101125.00
2022-08-21T15:02:08.123Z,101127.47
2022-08-21T15:04:35.806Z,101125.78
2022-08-21T15:07:02.812Z,101118.81
2022-08-21T15:09:29.593Z,101112.34
2022-08-21T15:11:59.634Z,101105.28
2022-08-21T15:14:30.466Z,101106.06
2022-08-21T15:16:57.790Z,101112.78
2022-08-21T15:19:24.617Z,101088.38
2022-08-21T15:21:51.514Z,101104.03
2022-08-21T15:24:18.632Z,101112.72
2022-08-21T15:26:46.140Z,101101.72
2022-08-21T15:29:12.885Z,101103.59
2022-08-21T15:31:54.184Z,101104.16
2022-08-21T15:34:21.448Z,101104.16
2022-08-21T15:36:52.158Z,101070.34
2022-08-21T15:39:24.673Z,101109.13
2022-08-21T15:41:51.501Z,101099.53
2022-08-21T15:44:18.326Z,101099.44
2022-08-21T15:46:45.854Z,101104.13
2022-08-21T15:49:12.551Z,101100.31
2022-08-21T15:51:43.450Z,101101.78
2022-08-21T15:54:11.141Z,101098.91
2022-08-21T15:56:41.783Z,101102.75
2022-08-21T15:59:16.575Z,101100.16
2022-08-21T16:01:44.643Z,101099.53
2022-08-21T16:04:19.541Z,101101.25
2022-08-21T16:06:54.439Z,101097.69
2022-08-21T16:09:23.879Z,101095.53
2022-08-21T16:11:51.463Z,101101.50
2022-08-21T16:14:18.419Z,101080.81
2022-08-21T16:16:45.404Z,101097.00
2022-08-21T16:19:13.645Z,101093.69
2022-08-21T16:21:40.932Z,101099.19
2022-08-21T16:24:07.629Z,101090.00
2022-08-21T16:26:34.610Z,101094.63
2022-08-21T16:29:03.174Z,101096.41
2022-08-21T16:31:32.242Z,101080.91
2022-08-21T16:33:59.646Z,101091.75
2022-08-21T16:36:27.248Z,101081.81
2022-08-21T16:38:56.227Z,101100.03
2022-08-21T16:41:26.573Z,101081.72
2022-08-21T16:43:53.441Z,101091.44
2022-08-21T16:46:21.784Z,101104.66
2022-08-21T16:48:50.187Z,101085.38
2022-08-21T16:51:17.774Z,101098.63
2022-08-21T16:53:45.004Z,101096.91
2022-08-21T16:56:14.218Z,101095.81
2022-08-21T16:58:47.380Z,101087.53
2022-08-21T17:01:19.852Z,101072.28
2022-08-21T17:03:51.041Z,101086.78
2022-08-21T17:06:18.843Z,101082.78
2022-08-21T17:08:45.600Z,101096.34
2022-08-21T17:11:37.941Z,101088.47
2022-08-21T17:14:10.978Z,101094.59
2022-08-21T17:16:40.880Z,101090.94
2022-08-21T17:19:08.349Z,101104.31
2022-08-21T17:21:35.635Z,101097.00
2022-08-21T17:24:02.487Z,101105.59
2022-08-21T17:26:29.125Z,101099.56
2022-08-21T17:28:55.889Z,101096.31
2022-08-21T17:31:22.831Z,101085.22
2022-08-21T17:33:53.288Z,101099.50
2022-08-21T17:36:27.016Z,101100.28
2022-08-21T17:38:54.749Z,101111.25
2022-08-21T17:41:22.302Z,101110.41
2022-08-21T17:43:49.713Z,101116.44
2022-08-21T17:46:24.686Z,101112.06
2022-08-21T17:48:51.515Z,101100.97
2022-08-21T17:51:18.873Z,101104.22
2022-08-21T17:53:45.775Z,101121.59
2022-08-21T17:56:18.984Z,101128.72
2022-08-21T17:58:50.225Z,101124.81
2022-08-21T18:01:18.219Z,101135.22
2022-08-21T18:03:47.073Z,101124.94
2022-08-21T18:06:17.775Z,101135.94
2022-08-21T18:08:45.723Z,101132.31
2022-08-21T18:11:16.004Z,101125.47
2022-08-21T18:13:52.359Z,101140.75
2022-08-21T18:16:19.570Z,101132.38
2022-08-21T18:18:49.172Z,101141.25
2022-08-21T18:21:16.109Z,101132.66
2022-08-21T18:23:44.811Z,101145.69
2022-08-21T18:26:16.265Z,101144.06
2022-08-21T18:28:44.262Z,101142.38
2022-08-21T18:31:11.876Z,101144.91
2022-08-21T18:33:43.587Z,101143.56
2022-08-21T18:36:25.188Z,101143.19
2022-08-21T18:38:52.804Z,101149.50
2022-08-21T18:41:19.492Z,101145.25
2022-08-21T18:43:46.191Z,101148.38
2022-08-21T18:46:12.980Z,101151.91
2022-08-21T18:48:40.526Z,101142.66
2022-08-21T18:51:07.237Z,101151.84
2022-08-21T18:53:36.303Z,101163.22
2022-08-21T18:56:04.989Z,101156.66
2022-08-21T18:58:34.068Z,101162.34
2022-08-21T19:01:01.345Z,101156.25
2022-08-21T19:03:28.026Z,101178.25
2022-08-21T19:05:55.219Z,101164.22
2022-08-21T19:08:28.097Z,101167.91
2022-08-21T19:11:01.207Z,101156.53
2022-08-21T19:13:28.537Z,101165.53
2022-08-21T19:15:56.604Z,101170.94
2022-08-21T19:18:28.317Z,101165.66
2022-08-21T19:20:57.350Z,101169.13
2022-08-21T19:23:29.375Z,101158.19
2022-08-21T19:26:00.774Z,101169.31
2022-08-21T19:28:51.464Z,101147.97
2022-08-21T19:31:35.062Z,101174.78
2022-08-21T19:34:18.917Z,101168.22
2022-08-21T19:36:46.563Z,101165.31
2022-08-21T19:39:15.358Z,101153.66
2022-08-21T19:44:37.228Z,101177.28
2022-08-21T19:47:18.842Z,101178.72
2022-08-21T19:49:54.310Z,101170.56
2022-08-21T19:52:22.122Z,101180.13
2022-08-21T19:54:49.101Z,101187.13
2022-08-21T19:57:17.337Z,101178.28
2022-08-21T19:59:44.856Z,101175.75
2022-08-21T20:02:13.754Z,101184.69
2022-08-21T20:04:40.499Z,101190.78
2022-08-21T20:07:25.178Z,101183.41
2022-08-21T20:10:07.911Z,101184.16
2022-08-21T20:12:37.517Z,101179.06
2022-08-21T20:15:07.804Z,101194.09
2022-08-21T20:17:34.633Z,101194.03
2022-08-21T20:20:01.367Z,101197.63
2022-08-21T20:22:27.971Z,101197.53
2022-08-21T20:24:55.266Z,101193.53
2022-08-21T20:27:26.026Z,101190.00
2022-08-21T20:29:54.362Z,101191.28
2022-08-21T20:32:22.338Z,101190.94
2022-08-21T20:34:52.065Z,101196.81
2022-08-21T20:37:22.182Z,101180.31
2022-08-21T20:40:10.806Z,101188.75
2022-08-21T20:42:45.510Z,101189.06
2022-08-21T20:45:17.814Z,101187.16
2022-08-21T20:47:45.579Z,101190.78
2022-08-21T20:50:16.944Z,101182.53
2022-08-21T20:52:48.746Z,101188.91
2022-08-21T20:55:18.866Z,101181.81
2022-08-21T20:58:09.191Z,101196.94
2022-08-21T21:00:43.366Z,101198.47
2022-08-21T21:03:55.433Z,101197.09
2022-08-21T21:06:27.672Z,101198.28
2022-08-21T21:09:08.257Z,101198.91
2022-08-21T21:11:45.932Z,101194.63
2022-08-21T21:17:39.079Z,101197.63
2022-08-21T21:20:25.036Z,101200.03
2022-08-21T21:23:03.302Z,101197.25
2022-08-21T21:25:45.657Z,101199.09
2022-08-21T21:28:35.085Z,101204.06
2022-08-21T21:31:03.880Z,101201.03
2022-08-21T21:33:30.956Z,101203.75
2022-08-21T21:36:29.204Z,101200.94
2022-08-21T21:39:36.278Z,101208.94
2022-08-21T21:42:30.071Z,101206.31
2022-08-21T21:45:41.486Z,101212.06
2022-08-21T21:48:36.247Z,101211.06
2022-08-21T21:51:19.012Z,101211.53
2022-08-21T21:54:29.403Z,101209.50
2022-08-21T21:57:38.419Z,101213.66
2022-08-21T22:03:26.092Z,101224.75
2022-08-21T22:06:01.195Z,101224.25
2022-08-21T22:08:53.534Z,101228.59
2022-08-21T22:11:58.591Z,101236.88
2022-08-21T22:14:40.943Z,101232.59
2022-08-21T22:17:36.764Z,101234.06
2022-08-21T22:20:18.907Z,101237.59
2022-08-21T22:22:46.427Z,101224.25
2022-08-21T22:25:24.016Z,101233.38
2022-08-21T22:28:11.473Z,101242.22
2022-08-21T22:30:49.232Z,101243.56
2022-08-21T22:33:22.903Z,101238.16
2022-08-21T22:35:53.253Z,101238.19
2022-08-21T22:38:25.958Z,101243.88
2022-08-21T22:41:14.955Z,101237.69
2022-08-21T22:44:23.221Z,101228.72
2022-08-21T22:47:03.511Z,101219.31
2022-08-21T22:49:43.621Z,101238.19
2022-08-21T22:52:31.755Z,101215.59
2022-08-21T22:55:15.779Z,101222.31
2022-08-21T22:57:44.059Z,101233.47
2022-08-21T23:00:16.669Z,101239.50
2022-08-21T23:02:58.447Z,101219.97
2022-08-21T23:05:36.160Z,101222.66
2022-08-21T23:08:30.801Z,101217.94
2022-08-21T23:11:17.129Z,101229.56
2022-08-21T23:13:50.713Z,101233.47
2022-08-21T23:16:47.348Z,101232.47
2022-08-21T23:19:51.279Z,101246.09
2022-08-21T23:22:43.268Z,101243.53
2022-08-21T23:25:28.445Z,101265.03
2022-08-21T23:28:24.614Z,101245.56
2022-08-21T23:31:26.511Z,101238.13
2022-08-21T23:34:19.667Z,101239.28
2022-08-21T23:37:14.364Z,101239.75
2022-08-21T23:39:57.163Z,101242.81
2022-08-21T23:43:03.755Z,101242.72
2022-08-21T23:45:59.273Z,101243.88
2022-08-21T23:49:05.938Z,101246.56
2022-08-21T23:52:23.053Z,101240.66
2022-08-21T23:55:28.400Z,101246.41
2022-08-21T23:58:28.547Z,101239.63
